首页
METAR-TAF:

METAR-TAF

机场 :

布加勒斯特伯尼亚萨-奥雷尔·弗拉伊库国际机场

布加勒斯特Băneasa, 罗马尼亚

纬度: 44-30N, 经度: 026-08E, 海拔: 90米

当前天气观测

该预报发布于20分钟前的02:00 UTC
风速1节,风向多变
温度 -3°C
湿度 86%
气压 1043 hPa
能見度: 8000

METAR: LRBS 210200Z VRB01KT 8000 NSC M03/M05 Q1043 NOSIG

时间: 04:20 (02:20 UTC)

预报

该预报发布于3小时和20分钟前的23:00 UTC
预报有效从21日的 00点(UTC)到 21日的 24点(UTC)
风速6节,风向东南
能見度: 5000
轻雾
短暂存在
从 21日的 01点(UTC)到 21日的 06点(UTC)
能見度: 1500
多云层高于500英尺
轻雾
成为
从 21日的 06点(UTC)到 21日的 08点(UTC)
风速10节,风向西
能见度10公里或以上
散云层高于1500英尺

TAF: LRBS 202300Z 2100/2124 13006KT 5000 BR NSC TEMPO 2101/2106 1500 BR BKN005 BECMG 2106/2108 26010KT 9999 NSW SCT015

超过4000个机场的气象观测和天气预报(METAR&TAF报告)。

可查询的气象台以黄色和红色小点在地图上表示。

将鼠标移到小点上方,可查看气象台名称。

然后点击查看天气观测和预报。

如需切换地图:点击带黑十字的绿色按钮放大地图;点击带横线的绿色按钮缩小地图;或者点击绿色箭头查看邻近地区的地图。


METAR-TAF: